CheckWX is a tool to help pilots better visualize weather data.  It is not intended as a substitute for an official pre-flight weather briefing.

14:22:08 UTC

KGPM METAR
Grand Prairie Municipal Airport
Grand Prairie, Texas, USA
Current

47 mins ago

KGPM 161335Z AUTO 20013G17KT 10SM CLR 28/22 A2998 RMK AO2 T02750218
Observed
Jul-16 @ 13:35 UTC
Wind
  • 200° at 13 KTS
  • Gusting to 17 KTS
Visibility
10 SM
Flight Rules
VFR
Cloud Levels
  • Clear skies
Temperature
28°C / 82°F
Dewpoint
22°C / 72°F
Heat Index
30°C / 86°F
Humidity
70%
Altimeter
29.98" Hg
Pressure
1015.22 hPa
Previous

1 hour ago

KGPM 161315Z AUTO 19009KT 10SM CLR 27/22 A2998 RMK AO2 T02710220
Observed
Jul-16 @ 13:15 UTC
Wind
  • 190° at 9 KTS
Visibility
10 SM
Flight Rules
VFR
Cloud Levels
  • Clear skies
Temperature
27°C / 81°F
Dewpoint
22°C / 72°F
Heat Index
29°C / 85°F
Humidity
74%
Altimeter
29.98" Hg
Pressure
1015.22 hPa
Previous

1 hour ago

KGPM 161255Z AUTO 18008KT 10SM CLR 27/22 A2998 RMK AO2 T02670220
Observed
Jul-16 @ 12:55 UTC
Wind
  • 180° at 8 KTS
Visibility
10 SM
Flight Rules
VFR
Cloud Levels
  • Clear skies
Temperature
27°C / 81°F
Dewpoint
22°C / 72°F
Heat Index
29°C / 85°F
Humidity
74%
Altimeter
29.98" Hg
Pressure
1015.22 hPa